Impacts METAR Board
IDs:

KLAX - Los Angeles Intl, CA, US

Updated at: 2300 UTC 02 Oct 2022
Potential Impact None Slight Moderate High
Time 02/11Z 02/12Z 02/13Z 02/14Z 02/15Z 02/16Z 02/17Z 02/18Z 02/19Z 02/20Z 02/21Z 02/22Z 02/23Z
Temp68 68 68 68 68 70 69 71 73 73 74 74 73
Dewpt58 58 58 58 58 59 59 60 60 60 59 59 59
Altim29.90 29.90 29.91 29.93 29.95 29.96 29.98 29.97 29.96 29.95 29.93 29.91 29.90
VIS10 10 8 10 10 10 10 10 10 10 10 10 10
CIG22 22 22 23 23 24 25 26 -- -- -- -- --
CoverOVCOVCOVCOVCOVCOVCOVCBKNSCTFEWSCTFEWSCT
FltCatMVFRMVFRMVFRMVFRMVFRMVFRMVFRMVFRVFRVFRVFRVFRVFR
WX--------------------------
WDir1030100000250260260260260260
WSpd3 3 3 0 0 5 0 6 8 9 12 14 14
WGst-- -- -- -- -- -- -- -- -- -- -- -- --
Raw hourly METARs
KLAX 021053Z 01003KT 10SM OVC022 20/14 A2990 RMK AO2 SLP121 T02000144
KLAX 021153Z 03003KT 10SM OVC022 20/14 A2990 RMK AO2 SLP123 T02000144 10200 20194 55001
KLAX 021253Z 01003KT 8SM OVC022 20/14 A2991 RMK AO2 SLP128 T02000144
KLAX 021353Z 00000KT 10SM OVC023 20/14 A2993 RMK AO2 SLP133 T02000144
KLAX 021453Z 00000KT 10SM OVC023 20/14 A2995 RMK AO2 SLP140 T02000144 53016
KLAX 021553Z VRB05KT 10SM FEW021 OVC024 21/15 A2996 RMK AO2 SLP144 T02110150
KLAX 021653Z 00000KT 10SM FEW021 OVC025 21/15 A2998 RMK AO2 SLP149 T02060150
KLAX 021753Z 25006KT 10SM FEW022 BKN026 22/16 A2997 RMK AO2 SLP148 T02170156 10217 20200 50008
KLAX 021853Z 26008KT 10SM SCT024 SCT110 23/16 A2996 RMK AO2 SLP145 T02280156
KLAX 021953Z 26009KT 10SM FEW018 FEW110 23/16 A2995 RMK AO2 SLP139 T02280156
KLAX 022053Z 26012KT 10SM FEW110 FEW180 SCT260 23/15 A2993 RMK AO2 SLP134 CB DSNT SE T02330150 58013
KLAX 022153Z 26014KT 10SM FEW110 FEW150 23/15 A2991 RMK AO2 SLP128 CB DSNT SE T02330150
KLAX 022253Z 26014KT 10SM FEW015 FEW110 SCT150 23/15 A2990 RMK AO2 SLP124 T02280150



Page loaded:  23:31 UTC  |   04:31 PM Pacific  |   05:31 PM Mountain  |   06:31 PM Central  |   07:31 PM Eastern

 

ADVISORIES

FORECASTS

FORECASTS

OBSERVATIONS

USER TOOLS

ABOUT US